EGHI - Southampton Weather Centre
Distance from station: E 5mi, 14km
Updated: 12/14/2017 8:50am
Few Clouds
Few Clouds
 Wind from SW
Wind: SW 6 mph , 9 km/h
Temperature: 37°F , 3°C
Wind Chill: 32°F , 0°C
Dew Point: 34°F , 1°C
Humidity: 87%
Barometer: 29.23 inHg , 990 hPa
Clouds: Few Clouds
Visibility: 6 miles , 10 km
Cloud details: Few Clouds 3800 ft
2017/12/14 16:50 EGHI 141650Z 23005KT 9999 FEW038 03/01 Q0990